Time;durP1;ratioP1;P1;durP2;ratioP2;P2;SDS_P1;SDS_P2;PMS_P1;PMS_P2;Temp;Humidity;BMP_temperature;BMP_pressure;BME280_temperature;BME280_humidity;BME280_pressure;Samples;Min_cycle;Max_cycle;Signal;HPM_P1;HPM_P2
2021/07/27 00:01:59;;;;;;;5.87;5.37;;;20.90;99.90;;;;;;5072653;28;20179;-71
2021/07/27 00:04:24;;;;;;;7.50;5.30;;;20.90;99.90;;;;;;5072498;28;20595;-71
2021/07/27 00:06:50;;;;;;;7.60;5.90;;;20.80;99.90;;;;;;5072417;28;20549;-71
2021/07/27 00:09:15;;;;;;;8.20;5.80;;;20.80;99.90;;;;;;5072379;28;20172;-72
2021/07/27 00:11:41;;;;;;;6.50;5.90;;;20.70;99.90;;;;;;5072223;28;20551;-72
2021/07/27 00:14:06;;;;;;;7.97;5.50;;;20.70;99.90;;;;;;5072216;28;20173;-71
2021/07/27 00:16:32;;;;;;;7.03;6.43;;;20.70;99.90;;;;;;5072022;28;20202;-72
2021/07/27 00:18:58;;;;;;;6.70;6.07;;;20.60;99.90;;;;;;5070973;28;20184;-72
2021/07/27 00:21:24;;;;;;;6.53;5.60;;;20.60;99.90;;;;;;5072060;28;20424;-72
2021/07/27 00:23:49;;;;;;;6.13;5.57;;;20.60;99.90;;;;;;5072126;28;20204;-71
2021/07/27 00:26:15;;;;;;;6.40;5.80;;;20.60;99.90;;;;;;5072274;28;20583;-72
2021/07/27 00:28:42;;;;;;;6.60;6.00;;;20.60;99.90;;;;;;5072171;28;20257;-72
2021/07/27 00:31:14;;;;;;;6.67;5.97;;;20.50;99.90;;;;;;5072136;28;20698;-72
2021/07/27 00:33:39;;;;;;;6.07;5.57;;;20.60;99.90;;;;;;5072399;28;20413;-72
2021/07/27 00:36:08;;;;;;;5.73;5.20;;;20.60;99.90;;;;;;5072100;28;20465;-71
2021/07/27 00:38:34;;;;;;;7.23;5.20;;;20.60;99.90;;;;;;5072350;28;20174;-72
2021/07/27 00:40:59;;;;;;;6.70;6.10;;;20.50;99.90;;;;;;5072351;28;20776;-72
2021/07/27 00:43:24;;;;;;;8.73;6.57;;;20.50;99.90;;;;;;5072814;28;20175;-72
2021/07/27 00:45:50;;;;;;;7.10;6.20;;;20.50;99.90;;;;;;5072331;28;20167;-72
2021/07/27 00:48:16;;;;;;;7.67;6.97;;;20.50;99.90;;;;;;5072860;28;20175;-72
2021/07/27 00:50:41;;;;;;;6.60;5.93;;;20.60;99.90;;;;;;5072751;28;20194;-71
2021/07/27 00:53:07;;;;;;;6.37;5.70;;;20.50;99.90;;;;;;5072014;28;20169;-72
2021/07/27 00:55:33;;;;;;;6.70;6.20;;;20.50;99.90;;;;;;5071708;28;20171;-72
2021/07/27 00:57:59;;;;;;;6.97;5.90;;;20.50;99.90;;;;;;5071519;28;20215;-73
2021/07/27 01:00:26;;;;;;;7.63;6.90;;;20.50;99.90;;;;;;5070765;28;20820;-72
2021/07/27 01:02:52;;;;;;;6.73;6.10;;;20.50;99.90;;;;;;5071622;28;20420;-70
2021/07/27 01:05:18;;;;;;;7.60;5.93;;;20.50;99.90;;;;;;5070455;28;20825;-70
2021/07/27 01:07:44;;;;;;;7.07;5.47;;;20.50;99.90;;;;;;5071668;28;20466;-70
2021/07/27 01:10:13;;;;;;;10.43;6.70;;;20.50;99.90;;;;;;5072805;28;20200;-70
2021/07/27 01:12:38;;;;;;;7.73;6.60;;;20.40;99.90;;;;;;5075678;28;20405;-70
2021/07/27 01:15:05;;;;;;;7.00;6.27;;;20.40;99.90;;;;;;5075559;28;20477;-70
2021/07/27 01:17:31;;;;;;;7.30;6.60;;;20.40;99.90;;;;;;5075562;28;20205;-70
2021/07/27 01:20:06;;;;;;;7.10;6.40;;;20.30;99.90;;;;;;5075374;28;20782;-70
2021/07/27 01:43:59;;;;;;;7.47;6.53;;;20.30;99.90;;;;;;5075412;28;20827;-70
2021/07/27 01:46:25;;;;;;;7.97;7.17;;;20.30;99.90;;;;;;5075264;28;20628;-70
2021/07/27 01:48:51;;;;;;;7.70;7.00;;;20.20;99.90;;;;;;5074889;28;20435;-70
2021/07/27 01:51:17;;;;;;;7.47;6.70;;;20.20;99.90;;;;;;5073500;28;20449;-69
2021/07/27 01:53:54;;;;;;;8.03;7.40;;;20.20;99.90;;;;;;5074620;28;20402;-69
2021/07/27 01:56:21;;;;;;;7.47;6.80;;;20.20;99.90;;;;;;5073578;28;20184;-70
2021/07/27 01:58:48;;;;;;;10.90;6.77;;;20.20;99.90;;;;;;5074869;28;20401;-69
2021/07/27 02:01:13;;;;;;;8.03;7.33;;;20.20;99.90;;;;;;5074538;28;20935;-71
2021/07/27 02:03:39;;;;;;;7.17;6.50;;;20.20;99.90;;;;;;5074803;28;20439;-71
2021/07/27 02:06:04;;;;;;;9.00;6.77;;;20.20;99.90;;;;;;5074722;28;20190;-69
2021/07/27 02:08:30;;;;;;;9.43;7.90;;;20.20;99.90;;;;;;5074619;28;20190;-69
2021/07/27 02:11:02;;;;;;;7.80;7.00;;;20.20;99.90;;;;;;5074594;28;20191;-69
2021/07/27 02:13:32;;;;;;;6.47;5.97;;;20.20;99.90;;;;;;5074542;28;20172;-70
2021/07/27 02:15:59;;;;;;;7.43;6.83;;;20.20;99.90;;;;;;5074404;28;20699;-70
2021/07/27 02:18:25;;;;;;;9.90;6.33;;;20.20;99.90;;;;;;5074578;28;20787;-69
2021/07/27 02:20:50;;;;;;;7.90;7.10;;;20.20;99.90;;;;;;5071646;28;20445;-70
2021/07/27 02:23:17;;;;;;;8.00;7.20;;;20.20;99.90;;;;;;5073357;28;20766;-70
2021/07/27 02:25:43;;;;;;;8.37;7.47;;;20.20;99.90;;;;;;5073343;28;20164;-70
2021/07/27 02:28:12;;;;;;;8.27;7.47;;;20.20;99.90;;;;;;5074369;28;20501;-70
2021/07/27 02:30:42;;;;;;;7.43;6.10;;;20.20;99.90;;;;;;5073352;28;20428;-70
2021/07/27 02:33:07;;;;;;;6.97;6.37;;;20.20;99.90;;;;;;5073222;28;20413;-70
2021/07/27 02:35:33;;;;;;;8.70;6.20;;;20.20;99.90;;;;;;5074625;28;20755;-70
2021/07/27 02:37:58;;;;;;;7.27;6.50;;;20.20;99.90;;;;;;5073824;28;20734;-70
2021/07/27 02:40:24;;;;;;;7.47;6.77;;;20.10;99.90;;;;;;5074152;28;20198;-70
2021/07/27 02:42:50;;;;;;;8.20;7.20;;;20.20;99.90;;;;;;5074572;28;20250;-70
2021/07/27 02:45:23;;;;;;;7.97;7.17;;;20.20;99.90;;;;;;5074182;28;20647;-70
2021/07/27 02:47:49;;;;;;;6.50;5.90;;;20.10;99.90;;;;;;5073802;28;20172;-70
2021/07/27 02:50:15;;;;;;;8.03;6.10;;;20.10;99.90;;;;;;5073355;28;20443;-70
2021/07/27 02:52:41;;;;;;;7.77;7.07;;;20.10;99.90;;;;;;5074139;28;20590;-70
2021/07/27 02:55:06;;;;;;;7.77;6.77;;;20.10;99.90;;;;;;5074064;28;20199;-70
2021/07/27 02:57:32;;;;;;;7.07;6.30;;;20.10;99.90;;;;;;5073520;28;20506;-69
2021/07/27 02:59:59;;;;;;;7.40;6.70;;;20.10;99.90;;;;;;5072677;28;20777;-70
2021/07/27 03:02:38;;;;;;;6.97;6.37;;;20.10;99.90;;;;;;5073878;28;20218;-69
2021/07/27 03:05:05;;;;;;;8.37;7.67;;;20.00;99.90;;;;;;5073785;28;20397;-70
2021/07/27 03:12:48;;;;;;;9.03;7.00;;;20.00;99.90;;;;;;5073474;28;20416;-69
2021/07/27 03:15:15;;;;;;;8.33;6.40;;;20.00;99.90;;;;;;5073446;28;20911;-70
2021/07/27 03:17:40;;;;;;;7.80;6.90;;;20.00;99.90;;;;;;5073166;28;20503;-70
2021/07/27 03:20:07;;;;;;;7.90;7.20;;;20.00;99.90;;;;;;5073346;28;20420;-70
2021/07/27 03:22:33;;;;;;;7.83;6.60;;;19.90;99.90;;;;;;5072801;28;20169;-70
2021/07/27 03:24:58;;;;;;;7.90;7.10;;;19.90;99.90;;;;;;5071988;28;20425;-70
2021/07/27 03:27:24;;;;;;;7.67;6.97;;;19.90;99.90;;;;;;5071666;28;20172;-70
2021/07/27 03:29:50;;;;;;;7.37;6.20;;;19.90;99.90;;;;;;5072944;28;20186;-70
2021/07/27 03:32:15;;;;;;;8.00;6.90;;;19.80;99.90;;;;;;5072475;28;20237;-70
2021/07/27 03:34:42;;;;;;;7.73;7.03;;;19.80;99.90;;;;;;5072953;28;20167;-70
2021/07/27 03:37:11;;;;;;;7.33;6.63;;;19.80;99.90;;;;;;5072276;28;20244;-70
2021/07/27 03:39:36;;;;;;;8.03;7.33;;;19.80;99.90;;;;;;5072776;28;20507;-70
2021/07/27 03:42:02;;;;;;;7.00;6.30;;;19.80;99.90;;;;;;5072632;28;20432;-71
2021/07/27 03:44:27;;;;;;;7.30;6.60;;;19.70;99.90;;;;;;5072579;28;20169;-71
2021/07/27 03:46:53;;;;;;;7.80;6.73;;;19.70;99.90;;;;;;5071293;28;20189;-71
2021/07/27 03:49:19;;;;;;;8.13;7.33;;;19.70;99.90;;;;;;5072575;28;20224;-70
2021/07/27 03:51:45;;;;;;;8.83;7.50;;;19.70;99.90;;;;;;5072515;28;20206;-70
2021/07/27 03:54:10;;;;;;;7.47;6.77;;;19.70;99.90;;;;;;5072491;28;20228;-70
2021/07/27 03:56:39;;;;;;;8.03;7.33;;;19.60;99.90;;;;;;5072481;28;20465;-70
2021/07/27 03:59:04;;;;;;;8.37;7.57;;;19.60;99.90;;;;;;5072220;28;20539;-70
2021/07/27 04:01:30;;;;;;;7.80;6.87;;;19.70;99.90;;;;;;5072492;28;20392;-70
2021/07/27 04:03:56;;;;;;;8.03;7.07;;;19.70;99.90;;;;;;5072440;28;20179;-70
2021/07/27 04:06:21;;;;;;;8.60;7.80;;;19.70;99.90;;;;;;5054348;28;20646;-70
2021/07/27 04:08:47;;;;;;;7.93;7.03;;;19.70;99.90;;;;;;5072168;28;20170;-70
2021/07/27 04:11:14;;;;;;;7.33;6.63;;;19.70;99.90;;;;;;5072183;28;20191;-70
2021/07/27 04:13:39;;;;;;;7.87;7.10;;;19.80;99.90;;;;;;5072632;28;20168;-70
2021/07/27 04:16:05;;;;;;;6.93;6.33;;;19.90;99.90;;;;;;5071403;28;20809;-70
2021/07/27 04:18:31;;;;;;;8.93;7.47;;;19.90;99.90;;;;;;5072349;28;20205;-70
2021/07/27 04:21:01;;;;;;;7.23;6.37;;;20.00;99.90;;;;;;5070648;28;20191;-70
2021/07/27 04:23:26;;;;;;;8.00;6.90;;;20.00;99.90;;;;;;5072179;28;20162;-70
2021/07/27 04:25:52;;;;;;;8.30;6.90;;;20.10;99.90;;;;;;5072252;28;20483;-70
2021/07/27 04:28:18;;;;;;;8.97;8.17;;;20.10;99.90;;;;;;5072042;28;20413;-71
2021/07/27 04:30:44;;;;;;;8.53;7.00;;;20.20;99.90;;;;;;5071737;28;20707;-70
2021/07/27 04:33:09;;;;;;;7.90;7.10;;;20.20;99.90;;;;;;5071712;28;20163;-71
2021/07/27 04:35:37;;;;;;;9.90;7.20;;;20.20;99.90;;;;;;5071699;28;20168;-72
2021/07/27 04:38:03;;;;;;;9.17;7.17;;;20.40;99.90;;;;;;5071461;28;20204;-72
2021/07/27 04:40:28;;;;;;;8.00;6.60;;;20.40;99.90;;;;;;5070486;28;20493;-71
2021/07/27 04:42:53;;;;;;;7.03;6.43;;;20.40;99.90;;;;;;5071441;28;20172;-71
2021/07/27 04:45:19;;;;;;;8.60;7.07;;;20.50;99.90;;;;;;5070751;28;20172;-71
2021/07/27 04:47:45;;;;;;;7.30;6.60;;;20.50;99.90;;;;;;5071323;28;20203;-71
2021/07/27 04:50:10;;;;;;;6.27;5.70;;;20.50;99.90;;;;;;5071136;28;20668;-71
2021/07/27 04:52:37;;;;;;;7.30;6.60;;;20.60;99.90;;;;;;5071612;28;20172;-70
2021/07/27 04:55:04;;;;;;;7.40;6.70;;;20.70;99.90;;;;;;5071432;28;20263;-70
2021/07/27 04:57:32;;;;;;;7.00;6.30;;;20.80;99.90;;;;;;5069941;28;21066;-70
2021/07/27 04:59:57;;;;;;;6.80;6.20;;;20.80;99.90;;;;;;5071273;28;20472;-70
2021/07/27 05:02:23;;;;;;;6.47;5.63;;;20.70;99.90;;;;;;5071273;28;20430;-70
2021/07/27 05:04:48;;;;;;;6.93;6.23;;;20.90;99.90;;;;;;5071658;28;20259;-71
2021/07/27 05:07:14;;;;;;;6.90;6.30;;;20.90;99.90;;;;;;5071884;28;20222;-71
2021/07/27 05:09:39;;;;;;;6.20;5.43;;;20.90;99.90;;;;;;5071681;28;20194;-71
2021/07/27 05:12:05;;;;;;;6.90;5.47;;;21.40;99.90;;;;;;5071253;28;20172;-71
2021/07/27 05:14:31;;;;;;;6.83;5.10;;;21.90;99.90;;;;;;5071490;28;20267;-74
2021/07/27 05:17:06;;;;;;;8.00;5.60;;;22.00;99.90;;;;;;5072136;28;20656;-72
2021/07/27 05:19:31;;;;;;;6.57;5.10;;;22.00;99.90;;;;;;5070447;28;20735;-71
2021/07/27 05:21:56;;;;;;;6.60;5.50;;;22.40;99.90;;;;;;5069727;28;20420;-71
2021/07/27 05:24:22;;;;;;;6.83;5.27;;;22.70;99.90;;;;;;5071244;28;20172;-71
2021/07/27 05:26:47;;;;;;;8.50;5.17;;;22.60;99.90;;;;;;5071039;28;20644;-72
2021/07/27 05:29:13;;;;;;;6.10;5.50;;;23.00;99.90;;;;;;5071419;28;20250;-72
2021/07/27 05:31:39;;;;;;;5.87;5.37;;;23.20;99.90;;;;;;5071322;28;20170;-69
2021/07/27 05:34:04;;;;;;;4.93;4.53;;;23.60;99.90;;;;;;5071387;28;20579;-71
2021/07/27 05:36:29;;;;;;;6.00;5.40;;;24.00;99.90;;;;;;5071405;28;20225;-72
2021/07/27 05:38:55;;;;;;;5.17;4.77;;;24.20;99.90;;;;;;5071839;28;20224;-72
2021/07/27 05:41:20;;;;;;;5.40;4.90;;;24.60;99.90;;;;;;5071859;28;20182;-72
2021/07/27 05:43:46;;;;;;;6.13;4.90;;;25.30;99.90;;;;;;5073232;28;20171;-72
2021/07/27 05:46:11;;;;;;;6.47;5.23;;;25.40;99.90;;;;;;5073110;28;20170;-72
2021/07/27 05:48:38;;;;;;;10.40;6.37;;;25.00;99.90;;;;;;5072952;28;20267;-72
2021/07/27 05:51:04;;;;;;;7.17;6.47;;;25.30;99.90;;;;;;5072994;28;20273;-72
2021/07/27 05:53:29;;;;;;;6.00;5.40;;;25.80;99.90;;;;;;5073998;28;20427;-72
2021/07/27 05:55:58;;;;;;;6.80;6.00;;;26.10;99.90;;;;;;5075453;28;20167;-72
2021/07/27 05:58:23;;;;;;;6.00;5.43;;;25.80;99.90;;;;;;5076960;28;20170;-72
2021/07/27 06:00:48;;;;;;;6.93;5.67;;;25.80;99.90;;;;;;5076652;28;20905;-72
2021/07/27 06:03:14;;;;;;;7.43;5.60;;;26.30;99.90;;;;;;5076591;28;20550;-72
2021/07/27 06:05:39;;;;;;;6.80;5.37;;;26.60;99.90;;;;;;5076882;28;20797;-72
2021/07/27 06:08:05;;;;;;;8.33;4.63;;;26.30;99.90;;;;;;5077023;28;20248;-72
2021/07/27 06:10:30;;;;;;;5.50;4.60;;;26.20;99.90;;;;;;5075549;28;20205;-72
2021/07/27 06:12:56;;;;;;;4.10;3.80;;;26.70;99.90;;;;;;5076596;28;20170;-71
2021/07/27 06:15:21;;;;;;;5.67;4.70;;;26.30;99.90;;;;;;5074698;28;20176;-72
2021/07/27 06:17:47;;;;;;;5.67;5.07;;;26.40;99.90;;;;;;5074557;28;20213;-71
2021/07/27 06:20:13;;;;;;;5.90;3.97;;;26.60;99.90;;;;;;5074359;28;20197;-72
2021/07/27 06:22:38;;;;;;;5.47;4.10;;;27.50;99.90;;;;;;5074910;28;20610;-72
2021/07/27 06:25:09;;;;;;;6.73;5.13;;;26.70;99.90;;;;;;5075134;28;20185;-72
2021/07/27 06:27:34;;;;;;;3.90;3.50;;;27.40;99.90;;;;;;5073141;28;20177;-72
2021/07/27 06:30:00;;;;;;;4.57;3.50;;;27.70;99.90;;;;;;5073494;28;20432;-72
2021/07/27 06:32:25;;;;;;;4.97;3.43;;;28.50;99.90;;;;;;5074488;28;20178;-72
2021/07/27 06:34:51;;;;;;;5.90;3.37;;;27.60;99.90;;;;;;5075070;28;20257;-72
2021/07/27 06:37:16;;;;;;;4.50;3.30;;;28.20;99.90;;;;;;5074493;28;20680;-72
2021/07/27 06:39:42;;;;;;;4.60;4.20;;;28.90;99.90;;;;;;5074392;28;20665;-72
2021/07/27 06:42:08;;;;;;;3.90;3.57;;;28.10;99.90;;;;;;5074938;28;20549;-72
2021/07/27 06:44:34;;;;;;;3.30;3.00;;;27.40;99.90;;;;;;5074951;28;20667;-72
2021/07/27 06:46:59;;;;;;;3.37;3.07;;;27.30;99.90;;;;;;5075221;28;20409;-72
2021/07/27 06:49:25;;;;;;;4.50;3.20;;;28.20;99.90;;;;;;5074878;28;20190;-72
2021/07/27 06:51:50;;;;;;;4.17;3.13;;;28.70;99.90;;;;;;5073449;28;20185;-72
2021/07/27 06:54:16;;;;;;;5.53;3.10;;;29.60;99.90;;;;;;5074082;28;20181;-72
2021/07/27 06:56:44;;;;;;;3.93;3.23;;;29.90;99.90;;;;;;5074298;28;20201;-72
2021/07/27 06:59:10;;;;;;;3.57;3.27;;;30.10;99.90;;;;;;5074281;28;20162;-72
2021/07/27 07:01:35;;;;;;;3.90;3.20;;;29.50;99.90;;;;;;5073049;28;20470;-72
2021/07/27 07:04:01;;;;;;;6.07;2.80;;;28.20;99.90;;;;;;5072243;28;20229;-73
2021/07/27 07:06:26;;;;;;;4.30;2.87;;;30.00;99.90;;;;;;5072944;28;20560;-72
2021/07/27 07:08:52;;;;;;;4.30;2.80;;;29.10;99.90;;;;;;5073450;28;20170;-72
2021/07/27 07:11:17;;;;;;;3.30;2.70;;;28.90;99.90;;;;;;5072200;28;20197;-70
2021/07/27 07:13:43;;;;;;;4.97;3.47;;;30.50;99.90;;;;;;5073519;28;20261;-70
2021/07/27 07:16:10;;;;;;;3.73;3.40;;;31.10;99.90;;;;;;5073106;28;20535;-70
2021/07/27 07:18:36;;;;;;;3.60;2.97;;;29.70;99.90;;;;;;5073146;28;20489;-71
2021/07/27 07:21:03;;;;;;;3.03;2.80;;;29.20;99.90;;;;;;5073046;28;20977;-71
2021/07/27 07:23:29;;;;;;;2.93;2.63;;;30.60;99.90;;;;;;5072967;28;20162;-71
2021/07/27 07:25:55;;;;;;;3.30;2.90;;;30.30;99.90;;;;;;5073012;28;20401;-71
2021/07/27 07:28:20;;;;;;;3.13;2.70;;;31.60;99.90;;;;;;5072546;28;20181;-71
2021/07/27 07:30:47;;;;;;;2.77;2.50;;;30.70;99.90;;;;;;5071743;28;20197;-71
2021/07/27 07:33:12;;;;;;;3.20;2.90;;;31.20;99.90;;;;;;5072653;28;20169;-71
2021/07/27 07:35:37;;;;;;;3.70;3.00;;;31.50;99.90;;;;;;5072696;28;20397;-71
2021/07/27 07:38:03;;;;;;;4.33;2.60;;;31.40;99.90;;;;;;5072323;28;20201;-71
2021/07/27 07:40:29;;;;;;;3.13;2.57;;;31.40;98.40;;;;;;5072399;28;20189;-71
2021/07/27 07:43:02;;;;;;;2.60;2.40;;;30.60;99.90;;;;;;5072392;28;20159;-71
2021/07/27 07:45:29;;;;;;;5.20;2.97;;;30.60;98.00;;;;;;5072631;28;20170;-71
2021/07/27 07:47:55;;;;;;;3.90;2.90;;;30.20;97.60;;;;;;5072887;28;20428;-71
2021/07/27 07:50:22;;;;;;;2.57;2.37;;;30.20;98.50;;;;;;5072733;28;20441;-72
2021/07/27 07:52:57;;;;;;;2.53;2.30;;;29.90;98.10;;;;;;5073177;28;20194;-71
2021/07/27 07:55:22;;;;;;;3.03;2.73;;;30.80;99.40;;;;;;5072597;28;20396;-71
2021/07/27 07:57:47;;;;;;;2.13;1.97;;;31.30;97.70;;;;;;5072249;28;20475;-71
2021/07/27 08:00:13;;;;;;;2.50;2.30;;;32.70;94.40;;;;;;5072408;28;20269;-69
2021/07/27 08:02:39;;;;;;;2.60;2.40;;;33.10;94.00;;;;;;5072205;28;20181;-69
2021/07/27 08:05:05;;;;;;;3.33;2.60;;;33.10;94.10;;;;;;5072386;28;20166;-68
2021/07/27 08:07:30;;;;;;;2.70;2.40;;;32.00;93.60;;;;;;5071923;28;20178;-69
2021/07/27 08:09:56;;;;;;;7.90;3.20;;;31.80;96.70;;;;;;5072238;28;20431;-69
2021/07/27 08:12:21;;;;;;;3.77;3.17;;;32.10;96.50;;;;;;5072093;28;20170;-68
2021/07/27 08:14:47;;;;;;;2.87;2.40;;;32.10;94.10;;;;;;5072217;28;20189;-69
2021/07/27 08:17:13;;;;;;;3.40;3.10;;;29.80;97.50;;;;;;5071787;28;20284;-69
2021/07/27 08:19:39;;;;;;;3.00;2.80;;;30.80;98.90;;;;;;5071854;28;20186;-70
2021/07/27 08:22:05;;;;;;;3.47;2.57;;;30.40;97.60;;;;;;5072107;28;20166;-70
2021/07/27 08:24:32;;;;;;;3.27;2.47;;;30.30;99.90;;;;;;5072050;28;20407;-70
2021/07/27 08:26:59;;;;;;;3.33;3.03;;;30.00;98.30;;;;;;5071982;28;20419;-69
2021/07/27 08:29:24;;;;;;;5.17;3.17;;;31.30;98.40;;;;;;5071852;28;20946;-68
2021/07/27 08:31:50;;;;;;;3.97;3.67;;;30.80;98.20;;;;;;5071797;28;20737;-68
2021/07/27 08:34:18;;;;;;;2.90;2.70;;;31.50;97.70;;;;;;5071890;28;20169;-69
2021/07/27 08:36:47;;;;;;;3.10;2.40;;;32.80;95.00;;;;;;5071674;28;20197;-69
2021/07/27 08:39:13;;;;;;;3.40;3.10;;;31.20;95.60;;;;;;5071756;28;20400;-69
2021/07/27 08:41:40;;;;;;;3.83;2.70;;;31.70;94.50;;;;;;5071638;28;20610;-72
2021/07/27 08:44:15;;;;;;;5.20;2.40;;;30.20;96.70;;;;;;5072033;28;20922;-71
2021/07/27 08:46:42;;;;;;;3.20;2.70;;;30.80;95.90;;;;;;5071764;28;20465;-70
2021/07/27 08:49:07;;;;;;;2.70;2.50;;;30.40;98.50;;;;;;5071698;28;20918;-69
2021/07/27 08:51:33;;;;;;;3.27;2.97;;;31.30;97.10;;;;;;5071754;28;20416;-72
2021/07/27 08:53:59;;;;;;;5.40;3.20;;;31.40;96.20;;;;;;5070522;28;20545;-70
2021/07/27 08:56:25;;;;;;;3.10;2.90;;;30.20;96.10;;;;;;5070491;28;20460;-70
2021/07/27 08:58:50;;;;;;;2.63;2.37;;;29.10;97.10;;;;;;5071783;28;20166;-70
2021/07/27 09:01:23;;;;;;;2.70;2.50;;;30.10;96.40;;;;;;5071787;28;20210;-70
2021/07/27 09:03:48;;;;;;;2.40;2.20;;;31.00;95.30;;;;;;5071936;28;20177;-69
2021/07/27 09:06:14;;;;;;;2.53;2.33;;;31.40;96.30;;;;;;5071596;28;20408;-69
2021/07/27 09:08:39;;;;;;;2.10;2.00;;;30.50;96.20;;;;;;5071633;28;20591;-69
2021/07/27 09:11:09;;;;;;;2.87;2.67;;;30.70;95.40;;;;;;5070304;28;20178;-68
2021/07/27 09:13:35;;;;;;;3.10;2.80;;;30.90;94.20;;;;;;5071508;28;20183;-68
2021/07/27 09:16:01;;;;;;;2.23;2.03;;;30.20;96.40;;;;;;5071432;28;20400;-68
2021/07/27 09:18:29;;;;;;;4.07;2.00;;;31.40;94.70;;;;;;5071914;28;20254;-68
2021/07/27 09:20:55;;;;;;;3.23;2.93;;;30.80;94.10;;;;;;5071565;28;20428;-69
2021/07/27 09:23:24;;;;;;;2.60;2.17;;;29.70;93.00;;;;;;5071769;28;20815;-69
2021/07/27 09:25:52;;;;;;;3.27;2.87;;;29.70;95.70;;;;;;5071660;28;20166;-70
2021/07/27 09:28:19;;;;;;;2.23;2.03;;;30.30;94.00;;;;;;5071554;28;20408;-70
2021/07/27 09:30:46;;;;;;;3.50;2.27;;;29.40;94.40;;;;;;5073163;28;20429;-70
2021/07/27 09:33:13;;;;;;;3.03;2.27;;;30.20;93.40;;;;;;5074177;28;20454;-70
2021/07/27 09:35:40;;;;;;;1.97;1.87;;;30.90;93.40;;;;;;5075087;28;20419;-70
2021/07/27 09:38:07;;;;;;;8.40;3.93;;;31.50;94.00;;;;;;5075214;28;20462;-68
2021/07/27 09:40:45;;;;;;;2.57;2.37;;;32.10;93.10;;;;;;5075160;28;20417;-69
2021/07/27 09:43:11;;;;;;;2.47;2.27;;;31.80;92.40;;;;;;5075203;28;20446;-69
2021/07/27 09:45:37;;;;;;;1.97;1.87;;;32.30;92.60;;;;;;5073830;28;20412;-71
2021/07/27 09:48:03;;;;;;;3.80;2.80;;;31.90;91.40;;;;;;5075448;28;20559;-69
2021/07/27 09:50:29;;;;;;;3.40;2.30;;;30.50;94.50;;;;;;5074664;28;20187;-68
2021/07/27 09:52:55;;;;;;;3.90;2.80;;;30.50;95.30;;;;;;5073417;28;20423;-69
2021/07/27 09:55:22;;;;;;;2.70;2.50;;;30.50;95.70;;;;;;5074728;28;20170;-69
2021/07/27 09:57:48;;;;;;;2.57;2.30;;;30.50;94.30;;;;;;5074624;28;20201;-69
2021/07/27 10:00:16;;;;;;;2.70;2.50;;;29.80;95.00;;;;;;5074588;28;20499;-69
2021/07/27 10:02:45;;;;;;;3.10;2.70;;;29.50;95.50;;;;;;5073079;28;20182;-69
2021/07/27 10:05:11;;;;;;;2.83;2.63;;;29.10;95.90;;;;;;5074497;28;20419;-69
2021/07/27 10:07:37;;;;;;;5.57;3.17;;;28.70;96.90;;;;;;5074288;28;20416;-69
2021/07/27 10:10:10;;;;;;;3.50;3.20;;;29.00;96.20;;;;;;5074467;28;20424;-69
2021/07/27 10:12:37;;;;;;;6.03;3.20;;;28.80;96.70;;;;;;5074453;28;20173;-70
2021/07/27 10:15:13;;;;;;;3.40;3.10;;;28.70;97.90;;;;;;5074449;28;20494;-69
2021/07/27 10:17:52;;;;;;;3.87;2.40;;;27.90;99.30;;;;;;5074689;28;20448;-69
2021/07/27 10:20:36;;;;;;;4.00;3.37;;;27.90;99.00;;;;;;5074059;28;20988;-70
2021/07/27 10:23:16;;;;;;;3.30;3.00;;;27.60;99.90;;;;;;5074152;28;20431;-70
2021/07/27 10:25:53;;;;;;;4.30;3.23;;;28.00;99.30;;;;;;5073939;28;20408;-69
2021/07/27 10:28:26;;;;;;;5.00;3.10;;;28.80;99.30;;;;;;5074189;28;20779;-69
2021/07/27 10:31:06;;;;;;;4.63;2.60;;;28.50;99.90;;;;;;5073977;28;20428;-69
2021/07/27 10:33:31;;;;;;;4.47;3.30;;;28.70;99.90;;;;;;5074189;28;20400;-70
2021/07/27 10:35:57;;;;;;;3.93;3.57;;;28.70;99.10;;;;;;5074301;28;20925;-70
2021/07/27 10:38:35;;;;;;;4.10;3.70;;;28.70;99.60;;;;;;5074028;28;20202;-70
2021/07/27 10:41:00;;;;;;;7.90;4.07;;;28.70;99.80;;;;;;5073369;28;20209;-71
2021/07/27 10:43:26;;;;;;;4.03;3.63;;;27.90;99.90;;;;;;5073583;28;20404;-69
2021/07/27 10:45:59;;;;;;;3.40;3.10;;;27.60;99.90;;;;;;5074171;28;20166;-69
2021/07/27 10:48:39;;;;;;;4.07;3.53;;;28.30;99.90;;;;;;5073379;28;20170;-72
2021/07/27 10:51:04;;;;;;;3.50;3.20;;;29.10;99.50;;;;;;5073834;28;20424;-70
2021/07/27 10:53:32;;;;;;;8.50;3.50;;;28.20;99.40;;;;;;5073876;28;20934;-70
2021/07/27 10:56:03;;;;;;;3.40;3.07;;;28.50;99.30;;;;;;5073924;28;20162;-70
2021/07/27 10:58:29;;;;;;;3.57;3.27;;;28.30;99.50;;;;;;5073633;28;20416;-69
2021/07/27 11:00:54;;;;;;;3.00;2.80;;;27.90;99.80;;;;;;5073259;28;20412;-69
2021/07/27 11:03:27;;;;;;;3.63;3.00;;;27.60;99.90;;;;;;5073523;28;20579;-69
2021/07/27 11:06:00;;;;;;;3.10;2.57;;;28.10;99.90;;;;;;5073599;28;20185;-69
2021/07/27 11:08:25;;;;;;;3.80;3.30;;;28.60;98.80;;;;;;5073363;28;20845;-70
2021/07/27 11:11:02;;;;;;;3.80;3.50;;;28.50;98.60;;;;;;5071828;28;20522;-69
2021/07/27 11:13:28;;;;;;;3.30;2.77;;;27.70;98.80;;;;;;5073747;28;20170;-70
2021/07/27 11:15:55;;;;;;;3.40;3.10;;;27.80;98.70;;;;;;5074373;28;20895;-71
2021/07/27 11:18:21;;;;;;;3.10;2.80;;;27.70;98.60;;;;;;5072005;28;20614;-69
2021/07/27 11:20:46;;;;;;;4.30;2.60;;;27.50;98.90;;;;;;5073135;28;20463;-69
2021/07/27 11:23:16;;;;;;;4.73;2.83;;;27.30;99.80;;;;;;5073369;28;20169;-70
2021/07/27 11:25:42;;;;;;;3.10;2.90;;;27.60;99.30;;;;;;5073092;28;20174;-70
2021/07/27 11:28:15;;;;;;;2.83;2.57;;;27.20;99.90;;;;;;5074018;28;20419;-71
2021/07/27 11:30:43;;;;;;;2.93;2.73;;;26.80;99.10;;;;;;5073482;28;20188;-70
2021/07/27 11:33:18;;;;;;;2.77;2.57;;;26.70;99.90;;;;;;5073242;28;20415;-70
2021/07/27 11:35:54;;;;;;;10.40;2.97;;;26.90;99.40;;;;;;5072979;28;20776;-69
2021/07/27 11:38:33;;;;;;;2.57;2.37;;;26.70;99.90;;;;;;5072778;28;20893;-69
2021/07/27 11:41:12;;;;;;;2.67;2.47;;;27.40;99.50;;;;;;5071777;28;20434;-70
2021/07/27 11:43:39;;;;;;;4.40;3.00;;;27.30;99.40;;;;;;5073332;28;20502;-70
2021/07/27 11:46:13;;;;;;;6.40;3.10;;;27.50;98.60;;;;;;5072910;28;20460;-70
2021/07/27 11:48:39;;;;;;;4.00;3.00;;;27.50;99.20;;;;;;5073627;28;20901;-70
2021/07/27 11:51:05;;;;;;;4.90;3.20;;;27.50;99.50;;;;;;5072598;28;20435;-71
2021/07/27 11:53:34;;;;;;;4.70;3.10;;;27.60;98.90;;;;;;5073103;28;20408;-71
2021/07/27 11:56:13;;;;;;;3.20;2.90;;;27.70;98.50;;;;;;5073102;28;20930;-71
2021/07/27 11:58:39;;;;;;;4.83;3.47;;;27.60;98.80;;;;;;5071201;28;20964;-71
2021/07/27 12:01:05;;;;;;;3.47;3.17;;;27.60;98.10;;;;;;5072580;28;20916;-71
2021/07/27 12:03:31;;;;;;;2.40;2.20;;;27.80;96.70;;;;;;5071707;28;20507;-70
2021/07/27 12:05:57;;;;;;;3.20;2.40;;;27.90;96.40;;;;;;5071848;28;20173;-70
2021/07/27 12:08:23;;;;;;;3.93;2.97;;;28.00;97.40;;;;;;5072856;28;20192;-70
2021/07/27 12:10:48;;;;;;;4.43;3.50;;;28.40;97.90;;;;;;5072232;28;20434;-70
2021/07/27 12:13:14;;;;;;;3.10;2.80;;;28.40;96.10;;;;;;5072233;28;20770;-70
2021/07/27 12:15:40;;;;;;;4.17;3.00;;;28.30;95.70;;;;;;5072743;28;20696;-71
2021/07/27 12:18:05;;;;;;;3.47;2.80;;;28.40;95.90;;;;;;5073108;28;20207;-72
2021/07/27 12:20:31;;;;;;;2.53;2.33;;;28.70;95.40;;;;;;5073181;28;20601;-72
2021/07/27 12:22:56;;;;;;;2.93;2.40;;;28.90;94.90;;;;;;5072188;28;20260;-72
2021/07/27 12:25:22;;;;;;;2.23;2.00;;;28.90;94.20;;;;;;5072847;28;20222;-70
2021/07/27 12:27:48;;;;;;;4.13;2.77;;;28.90;94.50;;;;;;5072842;28;20173;-72
2021/07/27 12:30:14;;;;;;;3.37;2.97;;;28.40;94.90;;;;;;5072701;28;20651;-72
2021/07/27 12:32:39;;;;;;;5.87;2.37;;;28.00;95.30;;;;;;5071666;28;20400;-72
2021/07/27 12:35:05;;;;;;;2.80;2.57;;;27.90;96.20;;;;;;5072137;28;20449;-72
2021/07/27 12:37:35;;;;;;;3.87;3.10;;;28.10;96.90;;;;;;5071762;28;20200;-72
2021/07/27 12:40:01;;;;;;;3.53;3.23;;;28.00;96.30;;;;;;5072044;28;20561;-72
2021/07/27 12:42:27;;;;;;;2.60;2.40;;;27.60;97.20;;;;;;5071097;28;20406;-71
2021/07/27 12:44:52;;;;;;;3.30;2.63;;;27.70;97.90;;;;;;5071889;28;20400;-72
2021/07/27 12:47:18;;;;;;;3.00;2.70;;;27.70;97.00;;;;;;5070413;28;20216;-72
2021/07/27 12:49:43;;;;;;;2.37;2.17;;;28.00;97.30;;;;;;5070575;28;20189;-71
2021/07/27 12:52:11;;;;;;;2.93;2.50;;;27.90;96.80;;;;;;5071932;28;20201;-71
2021/07/27 12:54:37;;;;;;;3.10;2.80;;;28.10;97.40;;;;;;5070397;28;20659;-71
2021/07/27 12:57:03;;;;;;;3.50;2.87;;;28.30;96.70;;;;;;5071594;28;20470;-72
2021/07/27 12:59:33;;;;;;;2.50;2.30;;;28.50;95.40;;;;;;5071799;28;20416;-72
2021/07/27 13:01:59;;;;;;;2.50;2.30;;;28.60;95.60;;;;;;5071619;28;20407;-72
2021/07/27 13:04:24;;;;;;;2.70;2.50;;;29.10;95.40;;;;;;5071906;28;20414;-72
2021/07/27 13:06:50;;;;;;;3.93;2.70;;;29.00;95.50;;;;;;5074686;28;20700;-73
2021/07/27 13:09:16;;;;;;;3.07;2.00;;;28.80;94.90;;;;;;5074578;28;20181;-72
2021/07/27 13:11:41;;;;;;;2.60;2.30;;;28.70;94.30;;;;;;5075322;28;20166;-72